Johnstown, PA

07:52 AM EDT del 28 Aprile 2015 (GMT -0400)
Johnstown-Cambria County | | Change Station
CLOSE
Current Station
Aeroporto
Location: Johnstown,
Altitudine: 2283 ft
Stazioni meteo nelle vicinanze

Alt. 2283 ft 40.32 °N, 78.83 °W | Updated 58 minutes ago

Parzialmente nuvoloso
Parzialmente nuvoloso
37 °F
Sembra 32 °F
N
7
Vento Variabile Vento da NNO

Oggi
Massima -- | Minima -- °F
--% Possibilità di precip.
Ieri
Massima -- | Minima -- °F
Precip. -- in
6:19 AM 8:07 PM
Gobba a ponente, 73% visible
Pressione 30.01 in
Visibilità 7.0 miglia
Nuvole Molto nuvoloso 700 ft
Raffreddamento del vento 32 °F
Punto di rugiada 35 °F
Umidità 93%
Piovosità 0.00 in
Spessore del manto nevoso Non disponibile.
Raggi UV 0 fuori da 12
Polline 8.50 fuori da 12
Qualità dell'aria Non disponibile.
Flu Activity Sporadic
METAR KJST 281054Z AUTO 33006KT 7SM BKN007 03/02 A2996 RMK AO2 SLP162 T00280017

More Conditions Fewer Conditions

Pressione 30.01 in
Visibilità 7.0 miglia
Nuvole Molto nuvoloso 700 ft
Raffreddamento del vento 32 °F
Punto di rugiada 35 °F
Umidità 93%
Piovosità 0.00 in
Spessore del manto nevoso Non disponibile.
Raggi UV 0 fuori da 12
Polline 8.50 fuori da 12
Qualità dell'aria Non disponibile.
Flu Activity Sporadic
METAR KJST 281054Z AUTO 33006KT 7SM BKN007 03/02 A2996 RMK AO2 SLP162 T00280017

More Conditions Fewer Conditions

10-Day Weather Forecast

Almanac

Astronomia

Apr. 28, 2015 Alba Tramonto
Ora attuale
Crepuscolo civile
Crepuscolo nautico
Crepuscolo astronomico
Luna
Estensione della luce visibile
Lunghezza del giorno
Tomorrow will be .
, % of the Moon is Illuminated

Gli estremi di oggi

State Highs State Lows

Community

WunderPhotos

Upload Photos

1,817,610 foto caricate!

WunderBlogs® & News

Nearby

Qualità dell'aria

  Qualità dell'aria Indice AQ Inquinante
Not available.

Profondità neve

Stazione Profondità Altitudine

Attività sismica

Città  Distanza Mag. Data & Ora
Minimo Magnitudo Mostrato è 2.5.

Temperature delle acque costiere

Località Temperatura

Stations

Stazioni meteo nelle vicinanze

Ubicazione della stazione Temp. Raffreddamento del vento Punto di rugiada Umidità Vento Precip. Alt. Aggiornato Tipo